Time;durP1;ratioP1;P1;durP2;ratioP2;P2;SDS_P1;SDS_P2;PMS_P1;PMS_P2;Temp;Humidity;BMP_temperature;BMP_pressure;BME280_temperature;BME280_humidity;BME280_pressure;Samples;Min_cycle;Max_cycle;Signal;HPM_P1;HPM_P2
2023/03/22 00:01:16;;;;;;;10.00;2.80;;;;;;;7.28;100.00;100882.19;4910157;29;20044;-86
2023/03/22 00:03:43;;;;;;;9.88;3.25;;;;;;;7.24;100.00;100886.38;4913936;29;20036;-85
2023/03/22 00:06:09;;;;;;;9.82;3.10;;;;;;;7.23;100.00;100889.28;4903632;29;20025;-85
2023/03/22 00:08:34;;;;;;;6.28;2.40;;;;;;;7.23;100.00;100878.63;4897040;29;20048;-86
2023/03/22 00:11:00;;;;;;;8.00;2.43;;;;;;;7.15;100.00;100870.97;4896833;29;20048;-86
2023/03/22 00:13:25;;;;;;;7.82;2.20;;;;;;;7.08;100.00;100863.91;4897490;29;20488;-86
2023/03/22 00:15:51;;;;;;;7.00;2.50;;;;;;;7.16;100.00;100872.59;4897513;29;20032;-86
2023/03/22 00:18:17;;;;;;;9.53;2.73;;;;;;;7.21;100.00;100873.50;4897243;29;20029;-86
2023/03/22 00:20:48;;;;;;;9.70;2.85;;;;;;;7.21;100.00;100859.38;4900983;29;20025;-86
2023/03/22 00:23:13;;;;;;;7.55;2.88;;;;;;;7.22;100.00;100856.47;4908763;29;20041;-86
2023/03/22 00:25:39;;;;;;;9.15;2.90;;;;;;;7.27;100.00;100866.44;4904008;29;20044;-86
2023/03/22 00:28:05;;;;;;;9.50;3.10;;;;;;;7.31;100.00;100853.44;4897111;29;20029;-85
2023/03/22 00:30:30;;;;;;;9.70;3.08;;;;;;;7.40;100.00;100852.84;4906195;29;20036;-85
2023/03/22 00:32:57;;;;;;;10.87;3.37;;;;;;;7.41;100.00;100848.31;4900486;29;20084;-85
2023/03/22 00:35:22;;;;;;;8.23;3.10;;;;;;;7.42;100.00;100841.94;4895761;29;20091;-86
2023/03/22 00:37:50;;;;;;;10.33;3.07;;;;;;;7.37;100.00;100836.53;4878238;29;20029;-86
2023/03/22 00:40:16;;;;;;;8.45;2.83;;;;;;;7.38;100.00;100833.59;4877657;29;20057;-85
2023/03/22 00:42:42;;;;;;;10.10;3.93;;;;;;;7.35;100.00;100826.06;4877783;29;20381;-87
2023/03/22 00:45:10;;;;;;;10.93;4.10;;;;;;;7.38;100.00;100828.28;4876538;29;20023;-86
2023/03/22 00:47:36;;;;;;;7.43;3.53;;;;;;;7.39;100.00;100829.09;4878197;29;20036;-86
2023/03/22 00:50:02;;;;;;;13.45;4.57;;;;;;;7.37;100.00;100824.00;4887558;29;20084;-86
2023/03/22 00:52:28;;;;;;;11.30;4.18;;;;;;;7.36;100.00;100817.03;4896490;29;20024;-85
2023/03/22 00:54:54;;;;;;;8.37;4.10;;;;;;;7.38;100.00;100819.47;4896536;29;20032;-85
2023/03/22 00:57:20;;;;;;;10.93;4.27;;;;;;;7.41;100.00;100814.47;4896755;29;20769;-86
2023/03/22 00:59:45;;;;;;;8.65;3.92;;;;;;;7.36;100.00;100809.03;4901067;29;20041;-85
2023/03/22 01:02:12;;;;;;;11.30;5.10;;;;;;;7.39;100.00;100808.56;4907190;29;20037;-86
2023/03/22 01:04:45;;;;;;;10.38;4.10;;;;;;;7.40;100.00;100804.84;4895427;29;20032;-86
2023/03/22 01:07:16;;;;;;;9.63;3.92;;;;;;;7.39;100.00;100803.25;4896352;29;20037;-86
2023/03/22 01:09:45;;;;;;;10.10;4.15;;;;;;;7.40;100.00;100804.03;4895934;29;20028;-86
2023/03/22 01:12:11;;;;;;;10.90;4.57;;;;;;;7.41;100.00;100795.81;4895985;29;20064;-85
2023/03/22 01:14:37;;;;;;;10.27;4.60;;;;;;;7.42;100.00;100794.78;4895997;29;20364;-86
2023/03/22 01:17:03;;;;;;;14.90;5.25;;;;;;;7.41;100.00;100793.16;4894955;29;20433;-86
2023/03/22 01:19:29;;;;;;;13.80;5.43;;;;;;;7.45;100.00;100784.69;4894603;29;20037;-86
2023/03/22 01:21:55;;;;;;;11.75;5.35;;;;;;;7.47;100.00;100782.59;4895276;29;20041;-85
2023/03/22 01:24:20;;;;;;;11.93;5.83;;;;;;;7.51;100.00;100781.03;4895876;29;20030;-85
2023/03/22 01:26:46;;;;;;;12.77;6.05;;;;;;;7.53;100.00;100774.44;4895655;29;20028;-86
2023/03/22 01:29:11;;;;;;;17.90;7.40;;;;;;;7.63;100.00;100755.16;4895669;29;20032;-86
2023/03/22 01:31:37;;;;;;;14.63;7.13;;;;;;;7.75;100.00;100756.94;4894477;29;20032;-86
2023/03/22 01:34:02;;;;;;;17.53;7.17;;;;;;;7.82;100.00;100738.94;4896066;29;20035;-86
2023/03/22 01:36:28;;;;;;;14.82;7.40;;;;;;;7.89;100.00;100742.25;4895406;29;20035;-86
2023/03/22 01:38:53;;;;;;;16.70;7.83;;;;;;;7.96;100.00;100726.88;4895228;29;20037;-86
2023/03/22 01:41:19;;;;;;;20.37;8.10;;;;;;;8.10;100.00;100732.72;4879034;29;20087;-86
2023/03/22 01:44:05;;;;;;;13.50;7.43;;;;;;;8.17;100.00;100733.34;4896239;29;20031;-85
2023/03/22 01:46:31;;;;;;;14.05;7.82;;;;;;;8.22;100.00;100731.81;4894850;29;20048;-86
2023/03/22 01:48:58;;;;;;;16.65;8.52;;;;;;;8.28;100.00;100725.50;4906304;29;20059;-86
2023/03/22 01:51:24;;;;;;;17.23;7.90;;;;;;;8.26;100.00;100714.25;4903889;29;20052;-86
2023/03/22 01:53:57;;;;;;;16.57;8.40;;;;;;;8.26;100.00;100699.03;4900415;29;20372;-86
2023/03/22 01:56:25;;;;;;;17.83;9.15;;;;;;;8.37;100.00;100705.34;4901874;29;20576;-85
2023/03/22 01:58:53;;;;;;;14.35;8.43;;;;;;;8.37;100.00;100699.19;4900768;29;20490;-86
2023/03/22 02:01:19;;;;;;;14.90;8.32;;;;;;;8.43;100.00;100708.88;4896544;29;20040;-86
2023/03/22 02:03:48;;;;;;;15.60;8.38;;;;;;;8.42;100.00;100705.41;4895301;29;20028;-86
2023/03/22 02:06:13;;;;;;;17.45;9.15;;;;;;;8.43;100.00;100695.53;4895372;29;20033;-86
2023/03/22 02:08:39;;;;;;;20.03;9.20;;;;;;;8.45;100.00;100688.91;4894771;29;20093;-86
2023/03/22 02:11:05;;;;;;;14.90;8.55;;;;;;;8.50;100.00;100685.50;4895569;29;20441;-87
2023/03/22 02:14:02;;;;;;;17.08;8.73;;;;;;;8.49;100.00;100690.03;4895202;29;20029;-86
2023/03/22 02:16:50;;;;;;;13.17;8.37;;;;;;;8.45;100.00;100688.06;4898514;29;20484;-86
2023/03/22 02:19:29;;;;;;;14.75;8.70;;;;;;;8.46;100.00;100679.00;4898728;29;20461;-87
2023/03/22 02:22:27;;;;;;;13.48;8.07;;;;;;;8.45;100.00;100683.56;4899204;29;20029;-87
2023/03/22 02:25:29;;;;;;;16.05;8.90;;;;;;;8.41;100.00;100677.09;4899255;29;20503;-87
2023/03/22 02:28:30;;;;;;;12.65;7.57;;;;;;;8.44;100.00;100678.44;4879861;29;20123;-86
2023/03/22 02:31:33;;;;;;;19.10;8.85;;;;;;;8.51;100.00;100678.28;4880359;29;20029;-87
2023/03/22 02:34:35;;;;;;;15.23;7.80;;;;;;;8.52;100.00;100674.56;4884063;29;20044;-87
2023/03/22 02:37:31;;;;;;;13.00;7.80;;;;;;;8.50;100.00;100666.81;4899019;29;20308;-87
2023/03/22 02:40:19;;;;;;;11.35;7.03;;;;;;;8.48;100.00;100674.25;4884188;29;20040;-87
2023/03/22 02:43:16;;;;;;;10.07;7.10;;;;;;;8.46;100.00;100673.69;4897567;29;20036;-87
2023/03/22 02:45:55;;;;;;;14.32;6.90;;;;;;;8.44;100.00;100657.09;4897244;29;20400;-86
2023/03/22 02:48:29;;;;;;;14.13;7.35;;;;;;;8.48;100.00;100668.94;4898176;29;20039;-87
2023/03/22 02:51:01;;;;;;;14.20;7.20;;;;;;;8.49;100.00;100665.19;4898889;29;20052;-87
2023/03/22 02:53:30;;;;;;;12.20;6.70;;;;;;;8.48;100.00;100668.94;4897594;29;20052;-87
2023/03/22 02:56:12;;;;;;;10.77;6.40;;;;;;;8.47;100.00;100668.09;4898875;29;20284;-87
2023/03/22 02:58:44;;;;;;;15.77;7.10;;;;;;;8.47;100.00;100660.09;4913007;29;20483;-87
2023/03/22 03:01:16;;;;;;;11.20;6.47;;;;;;;8.46;100.00;100654.97;4910909;29;20400;-87
2023/03/22 03:03:47;;;;;;;11.85;6.55;;;;;;;8.44;100.00;100646.41;4904658;29;20060;-86
2023/03/22 03:06:18;;;;;;;9.57;5.93;;;;;;;8.53;100.00;100641.47;4908151;29;20025;-87
2023/03/22 03:08:49;;;;;;;10.20;5.90;;;;;;;8.48;100.00;100644.91;4897647;29;20040;-87
2023/03/22 03:11:14;;;;;;;10.02;6.40;;;;;;;8.47;100.00;100646.75;4899789;29;20085;-86
2023/03/22 03:13:40;;;;;;;10.70;5.57;;;;;;;8.39;100.00;100638.34;4898269;29;20029;-86
2023/03/22 03:16:12;;;;;;;11.55;5.80;;;;;;;8.40;100.00;100648.78;4910047;29;20065;-87
2023/03/22 03:18:47;;;;;;;10.43;5.30;;;;;;;8.39;100.00;100643.69;4898940;29;20043;-86
2023/03/22 03:21:37;;;;;;;10.20;5.53;;;;;;;8.40;100.00;100640.75;4904518;29;20391;-86
2023/03/22 03:24:16;;;;;;;8.65;5.78;;;;;;;8.39;100.00;100639.16;4905017;29;20035;-87
2023/03/22 03:26:58;;;;;;;11.00;5.35;;;;;;;8.37;100.00;100635.13;4896458;29;20039;-86
2023/03/22 03:29:32;;;;;;;8.93;5.30;;;;;;;8.43;100.00;100634.09;4896883;29;20473;-86
2023/03/22 03:32:09;;;;;;;11.52;5.47;;;;;;;8.43;100.00;100636.78;4879784;29;20045;-86
2023/03/22 03:34:48;;;;;;;8.45;5.40;;;;;;;8.40;100.00;100624.75;4879210;29;20033;-86
2023/03/22 03:37:25;;;;;;;8.88;5.00;;;;;;;8.39;100.00;100630.34;4895808;29;20035;-86
2023/03/22 03:40:11;;;;;;;14.27;5.43;;;;;;;8.39;100.00;100636.47;4915965;29;20120;-86
2023/03/22 03:42:44;;;;;;;10.73;5.07;;;;;;;8.38;100.00;100631.41;4903943;29;20298;-85
2023/03/22 03:45:12;;;;;;;10.50;4.35;;;;;;;8.33;100.00;100630.28;4891327;29;20032;-86
2023/03/22 03:47:38;;;;;;;7.38;4.50;;;;;;;8.30;100.00;100628.09;4901538;29;20946;-87
2023/03/22 03:50:05;;;;;;;10.68;4.28;;;;;;;8.29;100.00;100633.69;4900308;29;20396;-87
2023/03/22 03:52:31;;;;;;;9.45;4.57;;;;;;;8.25;100.00;100630.69;4896068;29;20116;-86
2023/03/22 03:54:57;;;;;;;9.00;4.50;;;;;;;8.19;100.00;100637.03;4894309;29;20103;-85
2023/03/22 03:57:23;;;;;;;11.43;4.50;;;;;;;8.19;100.00;100639.69;4897450;29;20288;-85
2023/03/22 03:59:50;;;;;;;11.43;4.50;;;;;;;8.15;100.00;100635.91;4895854;29;20032;-85
2023/03/22 04:02:16;;;;;;;12.82;4.07;;;;;;;8.13;100.00;100635.34;4877395;29;20053;-85
2023/03/22 04:04:41;;;;;;;8.67;4.30;;;;;;;8.08;100.00;100640.59;4896121;29;20036;-85
2023/03/22 04:07:07;;;;;;;11.33;4.57;;;;;;;7.96;100.00;100633.50;4889226;29;20357;-85
2023/03/22 04:09:34;;;;;;;9.73;4.90;;;;;;;7.92;100.00;100635.03;4903052;29;20024;-85
2023/03/22 04:12:00;;;;;;;9.40;4.20;;;;;;;7.83;100.00;100626.63;4916785;29;20476;-85
2023/03/22 04:14:26;;;;;;;9.03;4.50;;;;;;;7.80;100.00;100634.34;4915586;29;20056;-85
2023/03/22 04:16:53;;;;;;;11.52;4.35;;;;;;;7.80;100.00;100629.00;4900329;29;20038;-85
2023/03/22 04:19:19;;;;;;;12.75;4.47;;;;;;;7.78;100.00;100631.09;4896363;29;20048;-85
2023/03/22 04:21:45;;;;;;;10.52;4.38;;;;;;;7.80;100.00;100624.44;4896490;29;20028;-85
2023/03/22 04:24:11;;;;;;;9.20;3.90;;;;;;;7.81;100.00;100622.59;4894490;29;20030;-85
2023/03/22 04:26:37;;;;;;;8.00;3.75;;;;;;;7.78;100.00;100623.88;4895256;29;20111;-86
2023/03/22 04:29:03;;;;;;;12.60;3.83;;;;;;;7.77;100.00;100616.13;4896391;29;20374;-85
2023/03/22 04:31:29;;;;;;;10.27;4.10;;;;;;;7.79;100.00;100619.38;4895456;29;20020;-85
2023/03/22 04:33:55;;;;;;;14.30;4.35;;;;;;;7.78;100.00;100613.22;4894984;29;20644;-85
2023/03/22 04:36:22;;;;;;;7.93;4.37;;;;;;;7.77;100.00;100608.13;4896455;29;20024;-85
2023/03/22 04:38:48;;;;;;;10.88;3.53;;;;;;;7.68;100.00;100613.06;4895436;29;20107;-85
2023/03/22 04:41:13;;;;;;;11.00;3.83;;;;;;;7.61;100.00;100607.09;4899873;29;20026;-84
2023/03/22 04:43:38;;;;;;;11.83;4.07;;;;;;;7.56;100.00;100608.66;4895601;29;20124;-85
2023/03/22 04:46:08;;;;;;;10.43;3.83;;;;;;;7.56;100.00;100611.31;4896824;29;20552;-84
2023/03/22 04:48:38;;;;;;;9.80;4.25;;;;;;;7.51;100.00;100603.22;4879820;29;20519;-84
2023/03/22 04:51:05;;;;;;;7.05;3.80;;;;;;;7.50;100.00;100611.44;4878313;29;20036;-85
2023/03/22 04:53:31;;;;;;;13.65;3.78;;;;;;;7.51;100.00;100610.41;4879126;29;20036;-85
2023/03/22 04:55:56;;;;;;;10.37;3.57;;;;;;;7.52;100.00;100610.16;4879415;29;20029;-85
2023/03/22 04:58:25;;;;;;;10.23;3.63;;;;;;;7.52;100.00;100604.00;4895062;29;20058;-85
2023/03/22 05:00:52;;;;;;;12.00;3.67;;;;;;;7.62;100.00;100604.19;4892777;29;20036;-84
2023/03/22 05:03:19;;;;;;;7.38;3.72;;;;;;;7.69;100.00;100606.69;4877346;29;20029;-84
2023/03/22 05:05:53;;;;;;;10.65;3.85;;;;;;;7.76;100.00;100603.84;4876773;29;20033;-84
2023/03/22 05:08:20;;;;;;;14.32;3.25;;;;;;;7.77;100.00;100592.94;4860125;29;20033;-84
2023/03/22 05:10:46;;;;;;;8.85;3.72;;;;;;;7.86;100.00;100604.81;4890996;29;20093;-84
2023/03/22 05:13:12;;;;;;;8.67;3.70;;;;;;;7.94;100.00;100605.47;4895753;29;20112;-84
2023/03/22 05:15:38;;;;;;;10.48;3.60;;;;;;;8.01;100.00;100595.41;4878889;29;20468;-85
2023/03/22 05:18:03;;;;;;;7.50;3.17;;;;;;;7.98;100.00;100595.88;4895941;29;20032;-85
2023/03/22 05:20:29;;;;;;;7.55;2.88;;;;;;;7.91;100.00;100593.41;4896755;29;20400;-85
2023/03/22 05:22:55;;;;;;;5.83;2.43;;;;;;;7.86;100.00;100594.13;4894743;29;20035;-88
2023/03/22 05:25:21;;;;;;;6.40;3.10;;;;;;;7.83;100.00;100583.97;4895491;29;20503;-87
2023/03/22 05:27:49;;;;;;;10.60;3.55;;;;;;;7.82;100.00;100597.56;4894890;29;20116;-86
2023/03/22 05:30:15;;;;;;;5.80;2.77;;;;;;;7.81;100.00;100585.25;4884538;29;20033;-86
2023/03/22 05:32:42;;;;;;;8.47;3.20;;;;;;;7.84;100.00;100598.13;4887297;29;20436;-86
2023/03/22 05:35:08;;;;;;;10.98;3.15;;;;;;;7.84;100.00;100603.44;4894937;29;20069;-86
2023/03/22 05:37:34;;;;;;;7.13;2.78;;;;;;;7.77;100.00;100592.13;4895555;29;20346;-88
2023/03/22 05:40:04;;;;;;;14.43;3.00;;;;;;;7.79;100.00;100590.81;4894550;29;20093;-85
2023/03/22 05:42:29;;;;;;;6.65;2.75;;;;;;;7.79;100.00;100595.38;4893659;29;20035;-86
2023/03/22 05:44:55;;;;;;;8.83;3.00;;;;;;;7.76;100.00;100587.84;4895400;29;20041;-86
2023/03/22 05:47:20;;;;;;;10.53;3.20;;;;;;;7.87;100.00;100586.94;4895581;29;20112;-84
2023/03/22 05:49:46;;;;;;;9.45;2.85;;;;;;;7.84;100.00;100584.78;4892019;29;20036;-84
2023/03/22 05:52:11;;;;;;;7.30;2.53;;;;;;;7.89;100.00;100587.50;4891870;29;20081;-85
2023/03/22 05:54:37;;;;;;;9.60;2.88;;;;;;;7.93;100.00;100595.84;4894748;29;20083;-85
2023/03/22 05:57:03;;;;;;;8.17;2.60;;;;;;;7.97;100.00;100599.59;4896994;29;20024;-84
2023/03/22 05:59:28;;;;;;;8.70;2.83;;;;;;;7.94;100.00;100598.25;4903326;29;20043;-84
2023/03/22 06:01:53;;;;;;;6.93;2.23;;;;;;;7.97;100.00;100594.28;4906124;29;20040;-84
2023/03/22 06:04:19;;;;;;;10.43;2.90;;;;;;;7.99;100.00;100602.84;4903624;29;20031;-84
2023/03/22 06:06:45;;;;;;;6.20;2.25;;;;;;;8.06;100.00;100605.34;4898951;29;20028;-83
2023/03/22 06:09:13;;;;;;;7.32;2.30;;;;;;;8.15;100.00;100596.66;4902136;29;20321;-84
2023/03/22 06:11:38;;;;;;;11.40;2.80;;;;;;;8.20;100.00;100595.94;4879204;29;20036;-86
2023/03/22 06:14:03;;;;;;;7.05;2.67;;;;;;;8.25;100.00;100587.97;4908884;29;20012;-89
2023/03/22 06:16:29;;;;;;;7.67;2.90;;;;;;;8.27;100.00;100593.88;4949892;23;20538;-88
2023/03/22 06:18:54;;;;;;;6.47;2.50;;;;;;;8.17;100.00;100578.53;4932331;29;20090;-87
2023/03/22 06:21:20;;;;;;;14.33;2.53;;;;;;;8.30;100.00;100597.94;4915784;29;20476;-89
2023/03/22 06:23:45;;;;;;;11.60;2.77;;;;;;;8.30;100.00;100590.72;4933254;29;20028;-88
2023/03/22 06:26:10;;;;;;;6.32;2.30;;;;;;;8.21;100.00;100578.88;4946880;23;20076;-88
2023/03/22 06:31:20;;;;;;;8.40;2.92;;;;;;;8.27;100.00;100567.19;4915665;29;20047;-90
2023/03/22 06:33:52;;;;;;;6.30;2.37;;;;;;;8.36;100.00;100562.22;4898405;29;20440;-90
2023/03/22 06:36:17;;;;;;;10.38;3.25;;;;;;;8.43;100.00;100548.66;4897600;29;20065;-86
2023/03/22 06:38:43;;;;;;;10.40;2.63;;;;;;;8.77;100.00;100585.91;4895894;29;20028;-88
2023/03/22 06:41:26;;;;;;;10.88;2.63;;;;;;;8.94;100.00;100591.16;4914406;29;20682;-86
2023/03/22 06:47:14;;;;;;;12.90;2.50;;;;;;;8.86;100.00;100557.69;4916953;29;20318;-85
2023/03/22 06:49:54;;;;;;;8.45;2.80;;;;;;;9.03;100.00;100578.16;4913198;29;20319;-86
2023/03/22 06:52:20;;;;;;;6.63;2.40;;;;;;;9.11;100.00;100582.22;4915376;29;20153;-89
2023/03/22 06:54:45;;;;;;;10.67;2.80;;;;;;;9.13;100.00;100580.13;4913462;29;20496;-89
2023/03/22 06:57:12;;;;;;;5.53;2.43;;;;;;;9.33;100.00;100598.19;4911983;29;20044;-86
2023/03/22 06:59:38;;;;;;;8.05;2.60;;;;;;;9.45;100.00;100604.19;4912830;29;20032;-87
2023/03/22 07:02:04;;;;;;;8.57;2.83;;;;;;;9.62;100.00;100597.91;4903311;29;20535;-88
2023/03/22 07:04:30;;;;;;;8.30;2.92;;;;;;;9.87;100.00;100593.75;4912510;29;20060;-87
2023/03/22 07:06:55;;;;;;;10.90;2.63;;;;;;;10.16;100.00;100599.53;4912825;29;20031;-86
2023/03/22 07:09:22;;;;;;;12.93;2.73;;;;;;;10.38;100.00;100601.25;4916203;29;20046;-87
2023/03/22 07:11:48;;;;;;;8.43;3.00;;;;;;;10.39;100.00;100594.84;4915547;29;20059;-87
2023/03/22 07:14:14;;;;;;;9.20;2.90;;;;;;;10.30;100.00;100589.16;4918224;29;20059;-87
2023/03/22 07:16:41;;;;;;;5.93;2.33;;;;;;;10.09;100.00;100586.38;4914344;29;20036;-89
2023/03/22 07:19:08;;;;;;;8.13;2.60;;;;;;;10.09;100.00;100589.06;4911212;29;20020;-87
2023/03/22 07:21:33;;;;;;;7.93;2.70;;;;;;;10.09;100.00;100591.75;4916484;29;20108;-86
2023/03/22 07:23:58;;;;;;;10.40;3.10;;;;;;;10.14;100.00;100593.63;4916775;29;20028;-87
2023/03/22 07:26:29;;;;;;;13.67;3.70;;;;;;;10.08;100.00;100583.97;4916501;29;20445;-86
2023/03/22 07:28:55;;;;;;;6.38;2.95;;;;;;;10.25;100.00;100602.53;4918005;29;20067;-87
2023/03/22 07:31:20;;;;;;;10.15;3.65;;;;;;;10.37;100.00;100602.31;4917041;29;20028;-88
2023/03/22 07:33:47;;;;;;;12.10;3.50;;;;;;;10.52;100.00;100599.72;4929086;29;20097;-88
2023/03/22 07:36:13;;;;;;;10.15;3.53;;;;;;;10.70;100.00;100600.31;4918907;28;20044;-88
2023/03/22 07:38:39;;;;;;;8.43;3.67;;;;;;;10.80;100.00;100612.94;4913645;29;20054;-87
2023/03/22 07:41:05;;;;;;;7.30;3.33;;;;;;;10.83;100.00;100602.50;4936632;28;20024;-90
2023/03/22 07:43:30;;;;;;;8.48;3.30;;;;;;;10.92;100.00;100610.84;4907267;29;20472;-88
2023/03/22 07:45:56;;;;;;;11.27;3.17;;;;;;;10.98;100.00;100601.69;4920806;29;20066;-88
2023/03/22 07:48:22;;;;;;;12.45;3.80;;;;;;;11.09;100.00;100589.13;4923396;29;20044;-88
2023/03/22 07:50:48;;;;;;;10.73;3.05;;;;;;;11.21;100.00;100604.97;4917455;29;20066;-87
2023/03/22 07:53:14;;;;;;;8.15;2.92;;;;;;;11.18;100.00;100598.25;4906412;29;20028;-88
2023/03/22 07:55:41;;;;;;;8.87;3.17;;;;;;;11.48;99.37;100617.31;4922047;29;20038;-89
2023/03/22 07:58:07;;;;;;;8.15;3.00;;;;;;;11.66;97.89;100615.94;4920333;29;20047;-87
2023/03/22 08:00:32;;;;;;;8.43;2.47;;;;;;;11.97;97.50;100611.34;4914902;29;20492;-86
2023/03/22 08:02:58;;;;;;;10.00;2.40;;;;;;;12.04;92.14;100608.38;4914647;29;20044;-85
2023/03/22 08:05:23;;;;;;;9.07;2.28;;;;;;;11.86;91.89;100601.72;4915472;29;20028;-86
2023/03/22 08:07:50;;;;;;;12.47;2.50;;;;;;;11.82;92.60;100620.22;4915784;29;20028;-92
2023/03/22 08:10:16;;;;;;;9.07;2.58;;;;;;;11.75;93.91;100602.78;4909317;29;20424;-88
2023/03/22 08:12:42;;;;;;;6.70;2.15;;;;;;;11.62;93.09;100594.22;4920453;29;20031;-87
2023/03/22 08:15:08;;;;;;;11.33;2.20;;;;;;;11.66;93.18;100608.72;4917317;29;20028;-89
2023/03/22 08:17:33;;;;;;;8.77;2.03;;;;;;;11.71;92.37;100615.94;4917089;29;20024;-88
2023/03/22 08:19:59;;;;;;;8.90;1.98;;;;;;;11.58;91.78;100598.50;4901116;29;21881;-88
2023/03/22 08:22:30;;;;;;;11.60;2.03;;;;;;;11.70;91.41;100624.25;4918227;29;20032;-88
2023/03/22 08:24:56;;;;;;;7.63;1.95;;;;;;;11.66;91.47;100613.25;4920808;29;20060;-88
2023/03/22 08:27:51;;;;;;;9.47;2.40;;;;;;;11.57;91.49;100594.22;4925705;29;20040;-89
2023/03/22 08:30:25;;;;;;;8.60;1.60;;;;;;;11.80;90.37;100617.00;4921799;29;20080;-90
2023/03/22 08:32:50;;;;;;;9.50;1.88;;;;;;;11.82;90.28;100597.94;4919726;29;20071;-88
2023/03/22 08:35:16;;;;;;;13.47;1.70;;;;;;;11.90;90.44;100602.75;4921494;29;20024;-87
2023/03/22 08:37:41;;;;;;;6.43;1.80;;;;;;;12.13;88.97;100619.38;4919952;29;20115;-89
2023/03/22 08:40:08;;;;;;;7.50;1.73;;;;;;;12.17;87.94;100604.34;4916329;29;20472;-89
2023/03/22 08:42:34;;;;;;;8.50;2.10;;;;;;;12.30;87.94;100605.63;4917900;29;20496;-88
2023/03/22 08:44:59;;;;;;;10.77;1.85;;;;;;;12.50;86.59;100607.41;4919714;29;20031;-88
2023/03/22 08:47:25;;;;;;;8.23;1.80;;;;;;;12.56;85.68;100589.38;4918072;29;20461;-88
2023/03/22 08:49:50;;;;;;;7.03;1.80;;;;;;;12.46;84.83;100605.56;4917047;29;20040;-87
2023/03/22 08:52:15;;;;;;;13.80;1.75;;;;;;;12.61;84.32;100610.03;4918915;29;20070;-87
2023/03/22 08:54:41;;;;;;;5.67;1.60;;;;;;;12.67;84.20;100588.25;4933695;28;20072;-87
2023/03/22 08:57:08;;;;;;;5.43;1.40;;;;;;;12.69;83.89;100602.19;4938748;29;20047;-87
2023/03/22 08:59:34;;;;;;;8.02;1.95;;;;;;;12.84;84.25;100608.59;4936231;28;20064;-87
2023/03/22 09:01:59;;;;;;;9.18;1.30;;;;;;;12.86;83.79;100596.47;4937713;28;20092;-88
2023/03/22 09:04:25;;;;;;;9.90;1.73;;;;;;;12.86;82.22;100606.44;4918250;29;20029;-88
2023/03/22 09:06:50;;;;;;;10.85;1.73;;;;;;;12.90;82.12;100593.22;4916680;29;20028;-89
2023/03/22 09:09:16;;;;;;;10.80;2.03;;;;;;;13.05;80.50;100573.50;4917028;29;20041;-88
2023/03/22 09:11:42;;;;;;;9.98;1.50;;;;;;;13.23;79.94;100601.59;4901149;29;20056;-88
2023/03/22 09:14:09;;;;;;;8.67;1.57;;;;;;;13.31;80.24;100590.25;4920483;29;20056;-88
2023/03/22 09:16:34;;;;;;;7.18;1.40;;;;;;;13.44;78.71;100597.69;4895133;29;20024;-87
2023/03/22 09:19:01;;;;;;;8.70;1.40;;;;;;;13.35;78.06;100582.41;4912703;29;20472;-88
2023/03/22 09:21:26;;;;;;;8.07;1.63;;;;;;;13.64;76.29;100587.81;4914217;29;20036;-90
2023/03/22 09:23:52;;;;;;;7.70;1.93;;;;;;;13.65;75.21;100567.06;4918367;29;20032;-90
2023/03/22 09:26:25;;;;;;;8.33;1.70;;;;;;;13.91;76.00;100583.75;4900097;29;20052;-90
2023/03/22 09:28:51;;;;;;;9.85;1.98;;;;;;;14.13;73.45;100582.44;4902129;29;20040;-90
2023/03/22 09:31:16;;;;;;;10.63;1.67;;;;;;;14.25;73.66;100577.44;4917684;29;20034;-90
2023/03/22 09:33:55;;;;;;;7.37;1.60;;;;;;;14.18;73.21;100585.88;4916560;29;20480;-90
2023/03/22 09:36:21;;;;;;;7.60;1.50;;;;;;;14.32;74.22;100591.38;4885867;29;20114;-89
2023/03/22 09:39:08;;;;;;;8.70;1.90;;;;;;;14.37;73.50;100572.47;4910356;29;20111;-89
2023/03/22 09:42:17;;;;;;;6.75;1.40;;;;;;;14.41;73.54;100579.97;4916103;29;20453;-89
2023/03/22 09:44:55;;;;;;;8.57;1.73;;;;;;;13.92;73.71;100567.34;4911745;29;20639;-88
2023/03/22 09:47:56;;;;;;;5.80;1.52;;;;;;;13.71;75.10;100565.94;4915573;29;20040;-89
2023/03/22 09:50:34;;;;;;;8.23;1.60;;;;;;;13.52;75.59;100579.31;4910995;29;20044;-89
2023/03/22 09:53:00;;;;;;;10.13;1.73;;;;;;;13.13;76.22;100546.00;4915652;29;20272;-92
2023/03/22 09:55:50;;;;;;;7.35;1.40;;;;;;;13.09;75.83;100572.66;4914392;29;20043;-89
2023/03/22 09:58:24;;;;;;;7.63;1.50;;;;;;;12.96;76.82;100573.28;4916452;29;20111;-89
2023/03/22 10:00:57;;;;;;;6.03;1.60;;;;;;;12.96;76.66;100584.84;4917224;29;20090;-90
2023/03/22 10:03:37;;;;;;;6.60;1.80;;;;;;;13.13;77.77;100573.72;4916590;29;20028;-91
2023/03/22 10:06:17;;;;;;;7.78;1.60;;;;;;;13.26;76.31;100574.94;4913905;29;20072;-89
2023/03/22 10:08:59;;;;;;;7.00;1.52;;;;;;;13.21;77.22;100579.56;4910772;29;20043;-89
2023/03/22 10:11:45;;;;;;;10.02;1.60;;;;;;;13.12;76.59;100569.41;4906751;29;20111;-88
2023/03/22 10:14:29;;;;;;;8.20;1.50;;;;;;;13.11;76.80;100583.13;4901331;29;20028;-89
2023/03/22 10:16:56;;;;;;;10.17;1.83;;;;;;;13.05;77.23;100571.59;4908298;29;20681;-87
2023/03/22 10:19:42;;;;;;;7.53;2.00;;;;;;;12.93;78.45;100569.25;4912454;29;20352;-88
2023/03/22 10:22:11;;;;;;;10.32;1.60;;;;;;;12.78;78.85;100572.84;4914455;29;20676;-87
2023/03/22 10:24:55;;;;;;;7.88;1.63;;;;;;;12.56;79.90;100555.25;4923295;23;20058;-89
2023/03/22 10:30:28;;;;;;;8.38;1.35;;;;;;;12.40;81.45;100592.16;4915713;29;20121;-89
2023/03/22 10:33:02;;;;;;;7.05;1.70;;;;;;;12.23;83.06;100597.84;4928305;29;20047;-89
2023/03/22 10:35:30;;;;;;;5.55;1.33;;;;;;;12.04;84.95;100576.16;4963460;23;20078;-90
2023/03/22 10:38:00;;;;;;;5.10;1.25;;;;;;;12.07;89.68;100602.47;4918218;29;20055;-89
2023/03/22 10:40:29;;;;;;;7.43;1.60;;;;;;;11.80;94.23;100597.41;4915634;29;20131;-87
2023/03/22 10:43:19;;;;;;;9.97;1.90;;;;;;;11.69;96.97;100593.94;4917481;29;20319;-87
2023/03/22 10:45:52;;;;;;;7.22;1.63;;;;;;;11.60;100.00;100599.06;4934290;23;20460;-85
2023/03/22 10:48:43;;;;;;;7.68;1.67;;;;;;;11.31;100.00;100590.75;4917700;29;20028;-85
2023/03/22 10:51:26;;;;;;;5.50;1.70;;;;;;;11.07;100.00;100561.75;4918334;29;20105;-85
2023/03/22 10:53:54;;;;;;;6.57;1.63;;;;;;;11.12;100.00;100590.47;4916146;29;20032;-85
2023/03/22 10:56:20;;;;;;;9.05;2.05;;;;;;;11.24;100.00;100591.00;4934465;29;20027;-85
2023/03/22 10:58:48;;;;;;;8.10;1.60;;;;;;;11.40;100.00;100582.97;4938873;29;20451;-88
2023/03/22 11:01:24;;;;;;;8.70;1.87;;;;;;;11.55;100.00;100593.69;4937348;29;20074;-85
2023/03/22 11:03:51;;;;;;;7.57;1.90;;;;;;;11.63;100.00;100593.16;4919198;29;20299;-86
2023/03/22 11:06:28;;;;;;;9.20;1.92;;;;;;;11.35;100.00;100591.81;4936587;29;20019;-86
2023/03/22 11:09:00;;;;;;;7.50;1.75;;;;;;;11.24;100.00;100580.28;4936167;29;20063;-86
2023/03/22 11:11:31;;;;;;;7.97;1.60;;;;;;;11.30;100.00;100591.81;4936900;29;20089;-86
2023/03/22 11:14:15;;;;;;;9.10;2.10;;;;;;;11.26;100.00;100586.19;4918340;29;20120;-86
2023/03/22 11:16:54;;;;;;;4.82;1.67;;;;;;;11.41;100.00;100587.25;4917442;29;20611;-86
2023/03/22 11:19:31;;;;;;;7.45;1.60;;;;;;;11.48;100.00;100591.28;4916798;29;20492;-86
2023/03/22 11:21:58;;;;;;;7.93;1.95;;;;;;;11.61;100.00;100578.38;4901011;29;20043;-86
2023/03/22 11:24:26;;;;;;;10.33;2.20;;;;;;;11.70;100.00;100567.88;4936101;29;20075;-86
2023/03/22 11:27:17;;;;;;;5.45;1.90;;;;;;;11.77;100.00;100589.91;4935926;29;20090;-87
2023/03/22 11:29:49;;;;;;;6.05;2.00;;;;;;;11.85;100.00;100588.53;4935742;29;20119;-86
2023/03/22 11:32:27;;;;;;;9.15;2.13;;;;;;;11.83;100.00;100583.44;4934362;29;20048;-86
2023/03/22 11:35:13;;;;;;;4.78;1.55;;;;;;;11.94;100.00;100595.75;4935652;29;20107;-86
2023/03/22 11:37:44;;;;;;;5.35;1.50;;;;;;;11.94;100.00;100590.41;4936054;29;20028;-86
2023/03/22 11:40:24;;;;;;;9.43;1.67;;;;;;;11.91;100.00;100584.78;4918766;29;20027;-86
2023/03/22 11:43:09;;;;;;;5.27;1.23;;;;;;;12.19;100.00;100578.00;4928541;29;20063;-86